map of KNID home
KNID - Airport
Location
City:  China Lake, California, United States
Name:NAWS China Lake
Old (Alt.):Armitage Field
ICAO:KNID
FAA LID:NID

Details
Type:Airport (Airfield)
Use:Military
Latitude:35°41'09"N (35.685700)
Longitude:117°41'32"W (-117.692108)
Datum:WGS 1984
Elevation:2284 ft (696 m)
Variation:12.20°E (WMM2015 magnetic declination)
-0.09° annual change
Runways:3
Longest:10001 × 200 ft (3048 × 61 m), paved

Time
Time Zone:UTC-8 (DST-7)
Local Time:

Weather
METAR:KNID 142356Z 17007KT 10SM FEW220 SCT280 21/M13 A3017 RMK AO2 SLP216 T02111128 10228 20183 53004

Related Locations
Nearby:
Farthest:ZSE: 11359 mi / 18280 km
St-Pierre (St-Pierre de la Réunion) [Pierrefonds], RE

Find:

   beyond  
but within

Other Information
Maps:
NOTAMs:
Links:
Sources:

  
flag of United States
flag of California
  

Airport Diagram

Airport diagram for KNID

Airport diagram PDF

Sectional Chart

Flight Planning
at skyvector.com

Satellite Image

Google Maps Satellite view

 

Copyright © 2004-2017 Karl L. Swartz. All rights reserved.
The Great Circle Mapper name and logo are trademarks of the Great Circle Mapper.
All other trademarks mentioned herein belong to their respective owners.
Please see credits for attibutions and further copyright information.

  Follow gcmap on Facebook Follow gcmap on Twitter Follow gcmap on Google+ GCmap on LinkedIn

hCard Microformat

Geo Microformat